Airfield :
LOGIN :

Register | Disclaimer

   EN    FR    IT 

 










Legend :    VFR   Marginal VFR   IFR   Intensive IFR   Very Intensive IFR
Visi :
Ceiling :
>= 8 km
>= 3000ft
5 to 8 km
1000 to 3000 ft
1500m to 5 km
500 to 1000 ft
800 to 1500m
200 to 500 ft
< 800m
< 200 ft
Symbols :   Thunderstorms  Fog  Heavy snow  Heavy precipitations  Wind > 20 kt
SIGMETs :     Misc.  Thunderstorms  Icing  Turbulence  Mountain Waves  Volcanic Ashes







- Airport Elevation : 374 ft
- IATA code : LIS


LPPT - Lisboa Portela

CURRENT METAR :
  • 171500Z 33013KT 290V350 CAVOK 31/15 Q1018

EXPIRED METARs :
  • 171430Z 34014KT 300V360 9999 FEW030 31/14 Q1018
  • 171400Z 33014KT CAVOK 31/15 Q1018
  • 171330Z 34014KT 310V010 CAVOK 32/16 Q1018
  • 171300Z 32011KT 300V360 CAVOK 31/15 Q1018
  • 171230Z 33010KT 270V010 CAVOK 31/15 Q1019

TAF TAF LPPT
Valid from the 17 at 12:00 until the 18 at 18:00 UTC


171100Z 1712/1818 33015KT CAVOK
PROB40
TEMPO 1715/1721 33018G28KT
BECMG 1721/1724 35012KT 9999 SCT012
TEMPO 1800/1808 BKN008
BECMG 1808/1810 CAVOK
TEMPO 1814/1818 34018G28KT
No reported NOTAMs for that airfield.



MET'MAP, your aeronautical weather chart ! - Copyright ORBIFLY December 2007 - Disclaimer

ORBIFLY MET'MAP TEAM :

Programming & Development : Alexandra Zaïnal
Concept & Development : Baudouin d'Aumeries
Co-Development & Prog : Marc-Olivier Méhu
Technical & hardware support : Manuel Goepfert

Contact : metmap@orbifly.com




SOURCES & CREDITS :

   NOAA